Time;durP1;ratioP1;P1;durP2;ratioP2;P2;SDS_P1;SDS_P2;PMS_P1;PMS_P2;Temp;Humidity;BMP_temperature;BMP_pressure;BME280_temperature;BME280_humidity;BME280_pressure;Samples;Min_cycle;Max_cycle;Signal;HPM_P1;HPM_P2
2022/12/01 00:02:08;;;;;;;27.50;16.70;;;4.90;99.90;;;;;;5010357;28;20167;-68
2022/12/01 00:04:33;;;;;;;20.50;14.30;;;4.90;99.90;;;;;;5008420;28;20210;-67
2022/12/01 00:06:59;;;;;;;24.10;15.27;;;4.90;99.90;;;;;;5011623;28;20198;-68
2022/12/01 00:12:09;;;;;;;27.23;15.27;;;4.90;99.90;;;;;;5002345;28;20565;-68
2022/12/01 00:14:34;;;;;;;25.13;15.00;;;4.80;99.90;;;;;;5010202;28;20465;-67
2022/12/01 00:17:00;;;;;;;31.80;16.53;;;4.70;99.90;;;;;;5011398;28;20179;-67
2022/12/01 00:19:27;;;;;;;27.50;18.63;;;4.70;99.90;;;;;;5013246;28;20198;-68
2022/12/01 00:21:52;;;;;;;21.80;16.87;;;4.70;99.90;;;;;;5013087;28;20175;-67
2022/12/01 00:24:18;;;;;;;25.53;16.37;;;4.70;99.90;;;;;;5004379;28;20469;-67
2022/12/01 00:26:44;;;;;;;30.83;16.83;;;4.70;99.90;;;;;;5007515;28;20590;-67
2022/12/01 00:29:09;;;;;;;24.97;15.90;;;4.70;99.90;;;;;;5011419;28;20444;-67
2022/12/01 00:31:35;;;;;;;26.00;16.67;;;4.80;99.90;;;;;;5012972;28;20182;-67
2022/12/01 00:34:00;;;;;;;24.07;15.53;;;4.80;99.90;;;;;;5013449;28;20582;-68
2022/12/01 00:36:26;;;;;;;26.93;16.03;;;4.70;99.90;;;;;;5021387;28;20588;-67
2022/12/01 00:38:54;;;;;;;28.60;16.63;;;4.70;99.90;;;;;;5012713;28;20284;-68
2022/12/01 00:41:20;;;;;;;27.70;17.80;;;4.70;99.90;;;;;;5016678;28;20175;-68
2022/12/01 00:43:46;;;;;;;26.67;16.90;;;4.70;99.90;;;;;;5019856;28;20859;-68
2022/12/01 00:46:11;;;;;;;28.83;17.00;;;4.70;99.90;;;;;;5019767;28;20434;-68
2022/12/01 00:48:37;;;;;;;32.23;17.03;;;4.70;99.90;;;;;;5011886;28;20429;-68
2022/12/01 00:51:03;;;;;;;28.33;17.53;;;4.70;99.90;;;;;;5013411;28;20257;-68
2022/12/01 00:53:29;;;;;;;34.97;19.53;;;4.70;99.90;;;;;;5017393;28;20227;-67
2022/12/01 00:55:55;;;;;;;29.40;17.70;;;4.70;99.90;;;;;;5013871;28;20790;-68
2022/12/01 00:58:22;;;;;;;32.10;17.20;;;4.80;99.90;;;;;;5015855;28;20468;-67
2022/12/01 01:00:48;;;;;;;27.23;18.23;;;4.80;99.90;;;;;;5014302;28;22108;-67
2022/12/01 01:03:14;;;;;;;26.37;16.67;;;4.80;99.90;;;;;;5017134;28;20433;-68
2022/12/01 01:05:41;;;;;;;30.27;18.63;;;4.80;99.90;;;;;;5019963;28;20437;-68
2022/12/01 01:08:08;;;;;;;25.17;16.77;;;4.80;99.90;;;;;;5018204;28;20612;-67
2022/12/01 01:10:38;;;;;;;30.60;18.03;;;4.80;99.90;;;;;;5011595;28;20860;-68
2022/12/01 01:13:03;;;;;;;28.07;18.33;;;4.80;99.90;;;;;;5005388;28;20434;-67
2022/12/01 01:15:29;;;;;;;31.70;18.57;;;4.80;99.90;;;;;;5009549;23;20498;-68
2022/12/01 01:17:54;;;;;;;28.60;15.77;;;4.80;99.90;;;;;;4991917;28;20176;-70
2022/12/01 01:20:20;;;;;;;24.20;16.43;;;4.80;99.90;;;;;;4992740;28;20179;-70
2022/12/01 01:22:45;;;;;;;27.13;17.20;;;4.80;99.90;;;;;;4991154;28;20245;-69
2022/12/01 01:25:11;;;;;;;27.47;17.37;;;4.80;99.90;;;;;;4986682;28;20208;-70
2022/12/01 01:27:36;;;;;;;28.17;17.87;;;4.80;99.90;;;;;;4988772;28;20211;-71
2022/12/01 01:30:03;;;;;;;30.03;17.90;;;4.80;99.90;;;;;;4995316;28;20229;-69
2022/12/01 01:32:28;;;;;;;27.63;17.53;;;4.70;99.90;;;;;;5000425;28;20668;-69
2022/12/01 01:34:54;;;;;;;25.17;16.87;;;4.60;99.90;;;;;;4993214;28;20462;-69
2022/12/01 01:37:19;;;;;;;23.30;14.73;;;4.60;99.90;;;;;;4992765;28;20186;-69
2022/12/01 01:39:45;;;;;;;27.90;16.20;;;4.50;99.90;;;;;;5005996;28;20273;-68
2022/12/01 01:42:17;;;;;;;25.37;16.63;;;4.40;99.90;;;;;;5000306;28;20187;-70
2022/12/01 01:44:54;;;;;;;27.10;16.90;;;4.40;99.90;;;;;;5005891;28;20609;-69
2022/12/01 01:47:33;;;;;;;23.67;15.10;;;4.50;99.90;;;;;;4999001;28;20516;-69
2022/12/01 01:50:05;;;;;;;29.70;17.77;;;4.60;99.90;;;;;;4991031;28;20798;-69
2022/12/01 01:52:33;;;;;;;25.77;15.43;;;4.50;99.90;;;;;;4997674;28;20950;-70
2022/12/01 01:54:59;;;;;;;23.23;15.23;;;4.60;99.90;;;;;;4997628;28;20521;-70
2022/12/01 01:57:30;;;;;;;27.37;17.47;;;4.50;99.90;;;;;;4996433;28;20445;-70
2022/12/01 02:00:06;;;;;;;25.37;16.70;;;4.50;99.90;;;;;;4991405;28;20498;-70
2022/12/01 02:02:39;;;;;;;21.93;15.23;;;4.50;99.90;;;;;;4988350;28;20438;-69
2022/12/01 02:05:09;;;;;;;26.03;17.53;;;4.40;99.90;;;;;;4994932;28;20449;-69
2022/12/01 02:07:37;;;;;;;28.37;17.13;;;4.40;99.90;;;;;;5003712;28;20440;-69
2022/12/01 02:10:03;;;;;;;24.03;15.40;;;4.30;99.90;;;;;;4993601;28;20442;-68
2022/12/01 02:12:31;;;;;;;24.83;15.47;;;4.30;99.90;;;;;;4998916;28;20442;-69
2022/12/01 02:15:12;;;;;;;27.63;17.90;;;4.30;99.90;;;;;;4999227;28;20477;-69
2022/12/01 02:17:55;;;;;;;33.43;18.00;;;4.30;99.90;;;;;;4992262;28;20597;-69
2022/12/01 02:20:53;;;;;;;27.50;17.17;;;4.40;99.90;;;;;;4991760;28;20507;-68
2022/12/01 02:23:56;;;;;;;27.77;17.30;;;4.40;99.90;;;;;;4992587;28;20454;-69
2022/12/01 02:26:51;;;;;;;25.00;15.20;;;4.30;99.90;;;;;;4999136;28;20441;-69
2022/12/01 02:29:49;;;;;;;23.30;15.33;;;4.30;99.90;;;;;;4985585;28;20431;-70
2022/12/01 02:32:27;;;;;;;26.30;16.83;;;4.40;99.90;;;;;;4988171;28;20463;-68
2022/12/01 02:35:12;;;;;;;25.87;16.33;;;4.40;99.90;;;;;;4997153;28;20589;-69
2022/12/01 02:38:13;;;;;;;30.40;18.77;;;4.40;99.90;;;;;;4995277;28;20492;-69
2022/12/01 02:40:45;;;;;;;24.10;15.87;;;4.40;99.90;;;;;;4968709;28;20454;-69
2022/12/01 02:43:22;;;;;;;26.00;16.97;;;4.50;99.90;;;;;;4990504;28;20816;-69
2022/12/01 02:45:54;;;;;;;27.37;16.23;;;4.50;99.90;;;;;;4991560;28;20454;-68
2022/12/01 02:48:29;;;;;;;27.13;16.27;;;4.50;99.90;;;;;;4992296;28;20867;-69
2022/12/01 02:50:58;;;;;;;22.87;15.60;;;4.50;99.90;;;;;;5002244;28;20788;-69
2022/12/01 02:53:24;;;;;;;23.30;14.80;;;4.60;99.90;;;;;;4983395;28;20795;-68
2022/12/01 02:55:56;;;;;;;25.20;15.97;;;4.60;99.90;;;;;;4983879;28;20446;-68
2022/12/01 02:58:22;;;;;;;27.50;17.70;;;4.60;99.90;;;;;;4989238;28;20265;-69
2022/12/01 03:01:11;;;;;;;26.40;15.40;;;4.50;99.90;;;;;;4986268;28;22024;-69
2022/12/01 03:03:56;;;;;;;23.67;15.60;;;4.40;99.90;;;;;;4986165;28;20184;-69
2022/12/01 03:06:40;;;;;;;26.20;16.07;;;4.50;99.90;;;;;;4985418;28;20439;-69
2022/12/01 03:09:32;;;;;;;25.23;16.13;;;4.50;99.90;;;;;;4989257;28;20448;-69
2022/12/01 03:12:18;;;;;;;23.73;16.40;;;4.40;99.90;;;;;;4991478;28;20466;-68
2022/12/01 03:14:48;;;;;;;22.63;15.10;;;4.30;99.90;;;;;;4990005;28;20481;-69
2022/12/01 03:17:19;;;;;;;25.13;13.83;;;4.10;99.90;;;;;;4990051;28;20435;-69
2022/12/01 03:20:07;;;;;;;27.63;16.93;;;4.00;99.90;;;;;;4991017;28;20556;-68
2022/12/01 03:22:40;;;;;;;24.20;15.67;;;4.00;99.90;;;;;;4987517;28;20439;-68
2022/12/01 03:25:08;;;;;;;24.73;14.70;;;4.00;99.90;;;;;;4990209;28;20458;-69
2022/12/01 03:27:38;;;;;;;24.53;15.50;;;4.00;99.90;;;;;;4989455;28;20445;-69
2022/12/01 03:30:09;;;;;;;24.67;16.23;;;4.00;99.90;;;;;;4988405;28;20439;-68
2022/12/01 03:32:47;;;;;;;24.87;15.53;;;4.00;99.90;;;;;;4987834;28;20470;-70
2022/12/01 03:35:28;;;;;;;25.40;15.57;;;4.00;99.90;;;;;;4982875;28;20461;-69
2022/12/01 03:38:03;;;;;;;23.10;14.93;;;4.00;99.90;;;;;;4990637;28;20496;-69
2022/12/01 03:40:31;;;;;;;26.97;16.60;;;4.00;99.90;;;;;;4996889;28;20434;-69
2022/12/01 03:43:00;;;;;;;29.10;17.40;;;4.00;99.90;;;;;;4992751;28;20532;-69
2022/12/01 03:45:38;;;;;;;24.73;15.87;;;4.10;99.90;;;;;;4997274;28;20457;-69
2022/12/01 03:48:05;;;;;;;27.10;17.00;;;4.10;99.90;;;;;;4997458;28;21057;-69
2022/12/01 03:51:08;;;;;;;29.47;18.63;;;4.10;99.90;;;;;;4985502;28;20954;-68
2022/12/01 03:53:55;;;;;;;24.00;15.77;;;4.10;99.90;;;;;;4995420;28;20496;-69
2022/12/01 03:56:25;;;;;;;21.47;14.40;;;4.20;99.90;;;;;;4991836;28;20434;-69
2022/12/01 03:58:53;;;;;;;21.27;15.70;;;4.20;99.90;;;;;;4998046;28;20466;-68
2022/12/01 04:01:21;;;;;;;28.07;16.30;;;4.20;99.90;;;;;;5003545;28;20781;-69
2022/12/01 04:03:47;;;;;;;27.13;15.77;;;4.10;99.90;;;;;;4996802;28;20473;-69
2022/12/01 04:06:12;;;;;;;22.67;15.53;;;4.10;99.90;;;;;;4998308;28;20946;-68
2022/12/01 04:08:38;;;;;;;24.97;15.70;;;4.00;99.90;;;;;;4992591;28;20438;-68
2022/12/01 04:12:28;;;;;;;23.70;16.40;;;4.00;99.90;;;;;;5005513;28;20190;-69
2022/12/01 04:13:49;;;;;;;25.87;14.03;;;4.00;99.90;;;;;;5001329;28;20489;-69
2022/12/01 04:16:15;;;;;;;27.47;16.80;;;4.00;99.90;;;;;;5001712;28;20442;-68
2022/12/01 04:18:40;;;;;;;29.53;16.10;;;4.00;99.90;;;;;;4993374;28;20578;-69
2022/12/01 04:21:06;;;;;;;25.60;16.33;;;4.00;99.90;;;;;;4998387;28;20668;-68
2022/12/01 04:26:15;;;;;;;26.77;16.40;;;4.10;99.90;;;;;;4993360;28;20190;-69
2022/12/01 04:28:41;;;;;;;24.77;14.60;;;4.10;99.90;;;;;;4992242;28;20833;-69
2022/12/01 04:31:06;;;;;;;23.30;15.90;;;4.10;99.90;;;;;;5001371;28;20191;-69
2022/12/01 04:33:32;;;;;;;22.27;16.80;;;4.20;99.90;;;;;;4995663;28;20216;-70
2022/12/01 04:35:58;;;;;;;27.43;16.07;;;4.10;99.90;;;;;;5003026;28;20230;-69
2022/12/01 04:38:24;;;;;;;29.50;17.60;;;4.00;99.90;;;;;;5003368;28;20289;-69
2022/12/01 04:40:50;;;;;;;24.20;15.03;;;4.10;99.90;;;;;;5006147;28;20588;-69
2022/12/01 04:43:16;;;;;;;26.60;17.00;;;4.00;99.90;;;;;;5005829;28;20446;-69
2022/12/01 04:45:41;;;;;;;28.30;17.10;;;4.00;99.90;;;;;;4996699;28;20195;-68
2022/12/01 04:48:07;;;;;;;23.80;15.53;;;4.10;99.90;;;;;;4994676;28;20186;-69
2022/12/01 04:50:32;;;;;;;21.93;15.43;;;4.10;99.90;;;;;;4994243;28;20267;-69
2022/12/01 04:52:58;;;;;;;24.23;15.80;;;4.10;99.90;;;;;;4989097;28;20538;-68
2022/12/01 04:55:24;;;;;;;29.00;17.70;;;4.10;99.90;;;;;;4994513;28;20195;-69
2022/12/01 04:57:50;;;;;;;21.10;15.10;;;4.10;99.90;;;;;;4992407;28;20186;-69
2022/12/01 05:00:17;;;;;;;26.07;15.87;;;4.20;99.90;;;;;;4989835;28;20470;-70
2022/12/01 05:02:42;;;;;;;27.27;14.87;;;4.20;99.90;;;;;;4992521;28;20803;-68
2022/12/01 05:05:12;;;;;;;25.53;18.73;;;4.20;99.90;;;;;;4989610;28;20541;-69
2022/12/01 05:07:38;;;;;;;26.50;17.90;;;4.30;99.90;;;;;;4992436;28;20649;-69
2022/12/01 05:10:04;;;;;;;26.50;17.17;;;4.30;99.90;;;;;;4990164;28;20465;-70
2022/12/01 05:12:30;;;;;;;26.93;17.43;;;4.30;99.90;;;;;;4990880;28;20449;-69
2022/12/01 05:14:56;;;;;;;31.83;17.90;;;4.40;99.90;;;;;;4992973;28;20470;-69
2022/12/01 05:17:21;;;;;;;22.10;16.10;;;4.40;99.90;;;;;;4993038;28;20218;-70
2022/12/01 05:22:31;;;;;;;23.97;14.97;;;4.30;99.90;;;;;;4996036;28;20274;-68
2022/12/01 05:24:56;;;;;;;29.70;17.37;;;4.20;99.90;;;;;;4997789;28;20549;-69
2022/12/01 05:27:22;;;;;;;25.13;15.93;;;4.20;99.90;;;;;;5003626;28;20581;-68
2022/12/01 05:29:47;;;;;;;28.27;16.90;;;4.30;99.90;;;;;;5003891;28;20182;-68
2022/12/01 05:32:13;;;;;;;27.30;17.37;;;4.30;99.90;;;;;;4990820;28;20645;-70
2022/12/01 05:34:38;;;;;;;23.30;14.97;;;4.30;99.90;;;;;;4984554;28;20208;-69
2022/12/01 05:37:04;;;;;;;25.47;16.90;;;4.40;99.90;;;;;;4990343;28;20179;-68
2022/12/01 05:39:30;;;;;;;29.13;20.10;;;4.40;99.90;;;;;;4990744;28;20298;-68
2022/12/01 05:41:55;;;;;;;24.77;17.17;;;4.30;99.90;;;;;;4991055;28;20211;-69
2022/12/01 05:44:21;;;;;;;21.50;14.83;;;4.30;99.90;;;;;;4989317;28;20227;-69
2022/12/01 05:46:46;;;;;;;28.03;18.00;;;4.30;99.90;;;;;;4989670;28;20184;-70
2022/12/01 05:49:12;;;;;;;29.60;18.33;;;4.40;99.90;;;;;;4990055;28;20559;-68
2022/12/01 05:51:37;;;;;;;26.73;17.70;;;4.30;99.90;;;;;;4989983;28;20188;-69
2022/12/01 05:54:03;;;;;;;25.77;16.90;;;4.30;99.90;;;;;;5000161;28;20203;-70
2022/12/01 05:56:28;;;;;;;28.30;17.93;;;4.30;99.90;;;;;;4992561;28;20199;-67
2022/12/01 05:58:54;;;;;;;27.70;17.83;;;4.20;99.90;;;;;;4991820;28;20280;-67
2022/12/01 06:01:20;;;;;;;24.37;15.40;;;4.10;99.90;;;;;;4999390;28;20185;-69
2022/12/01 06:03:46;;;;;;;29.73;17.00;;;4.10;99.90;;;;;;4993521;28;20195;-69
2022/12/01 06:06:11;;;;;;;25.93;17.33;;;4.10;99.90;;;;;;5001294;28;20545;-69
2022/12/01 06:08:37;;;;;;;27.13;18.00;;;4.10;99.90;;;;;;4988065;28;20207;-68
2022/12/01 06:11:02;;;;;;;31.80;18.33;;;4.00;99.90;;;;;;4989678;28;20278;-69
2022/12/01 06:13:28;;;;;;;25.20;16.50;;;3.90;99.90;;;;;;4997402;28;20187;-70
2022/12/01 06:16:02;;;;;;;27.80;17.37;;;3.90;99.90;;;;;;4994561;28;20238;-69
2022/12/01 06:18:33;;;;;;;23.60;16.73;;;3.90;99.90;;;;;;4983942;28;20203;-68
2022/12/01 06:20:59;;;;;;;30.30;17.80;;;4.00;99.90;;;;;;4983884;28;20489;-71
2022/12/01 06:23:25;;;;;;;29.57;17.77;;;4.00;99.90;;;;;;4992623;28;20885;-70
2022/12/01 06:25:51;;;;;;;27.53;18.00;;;4.10;99.90;;;;;;4990292;28;20442;-70
2022/12/01 06:28:16;;;;;;;26.27;17.50;;;4.10;99.90;;;;;;4987365;28;20183;-68
2022/12/01 06:30:42;;;;;;;30.90;19.70;;;4.10;99.90;;;;;;4988321;28;20183;-68
2022/12/01 06:33:08;;;;;;;29.50;18.17;;;4.20;99.90;;;;;;4991504;28;20203;-69
2022/12/01 06:35:34;;;;;;;27.97;16.87;;;4.10;99.90;;;;;;4989133;28;20894;-69
2022/12/01 06:38:00;;;;;;;29.97;18.27;;;4.00;99.90;;;;;;5003304;28;20179;-69
2022/12/01 06:40:26;;;;;;;28.13;19.33;;;4.00;99.90;;;;;;4986347;28;20583;-68
2022/12/01 06:42:51;;;;;;;28.90;19.57;;;4.00;99.90;;;;;;4991305;28;20180;-67
2022/12/01 06:45:17;;;;;;;29.77;19.30;;;4.00;99.90;;;;;;4987149;28;20478;-69
2022/12/01 06:47:43;;;;;;;28.60;18.07;;;3.90;99.90;;;;;;4991626;28;20719;-68
2022/12/01 06:50:10;;;;;;;29.70;19.23;;;3.90;99.90;;;;;;4974833;28;20184;-69
2022/12/01 06:52:36;;;;;;;31.67;20.17;;;3.90;99.90;;;;;;4973801;28;20172;-69
2022/12/01 06:55:03;;;;;;;33.03;20.53;;;3.80;99.90;;;;;;4973658;28;20435;-68
2022/12/01 06:57:29;;;;;;;32.90;20.60;;;3.80;99.90;;;;;;4973194;28;20439;-69
2022/12/01 06:59:54;;;;;;;35.47;23.17;;;3.80;99.90;;;;;;4973255;28;20475;-69
2022/12/01 07:02:20;;;;;;;27.73;18.50;;;3.80;99.90;;;;;;4973690;28;20561;-68
2022/12/01 07:04:46;;;;;;;31.17;20.20;;;3.80;99.90;;;;;;4973434;28;20246;-69
2022/12/01 07:07:11;;;;;;;29.90;19.70;;;3.90;99.90;;;;;;4973487;28;20175;-68
2022/12/01 07:09:37;;;;;;;34.40;21.67;;;3.80;99.90;;;;;;4972994;28;20176;-69
2022/12/01 07:12:03;;;;;;;32.03;20.00;;;3.90;99.90;;;;;;4973491;28;20176;-68
2022/12/01 07:14:30;;;;;;;24.10;17.33;;;3.90;99.90;;;;;;4973584;28;20478;-68
2022/12/01 07:16:56;;;;;;;34.50;19.50;;;4.00;99.90;;;;;;4973402;28;20251;-69
2022/12/01 07:19:22;;;;;;;35.27;20.60;;;4.00;99.90;;;;;;4973027;28;20459;-68
2022/12/01 07:21:47;;;;;;;32.23;20.47;;;4.00;99.90;;;;;;4972621;28;20419;-68
2022/12/01 07:24:13;;;;;;;28.90;18.80;;;4.00;99.90;;;;;;4973253;28;20199;-68
2022/12/01 07:26:40;;;;;;;30.93;19.40;;;4.00;99.90;;;;;;4973261;28;20783;-68
2022/12/01 07:29:05;;;;;;;29.07;17.63;;;4.10;99.90;;;;;;4973001;28;20184;-68
2022/12/01 07:31:31;;;;;;;30.00;19.70;;;4.00;99.90;;;;;;4973182;28;20423;-68
2022/12/01 07:33:57;;;;;;;37.63;19.90;;;4.00;99.90;;;;;;4973189;28;20238;-68
2022/12/01 07:36:22;;;;;;;29.97;18.20;;;4.00;99.90;;;;;;4973256;28;20180;-68
2022/12/01 07:38:48;;;;;;;29.23;19.33;;;4.00;99.90;;;;;;4972916;28;20600;-68
2022/12/01 07:41:17;;;;;;;29.40;19.97;;;4.00;99.90;;;;;;4973164;28;20183;-68
2022/12/01 07:43:44;;;;;;;31.03;20.13;;;4.00;99.90;;;;;;4973076;28;20281;-68
2022/12/01 07:46:12;;;;;;;30.07;19.40;;;4.10;99.90;;;;;;4973170;28;20478;-69
2022/12/01 07:48:39;;;;;;;30.50;19.30;;;4.00;99.90;;;;;;4972784;28;20456;-68
2022/12/01 07:51:06;;;;;;;30.00;19.00;;;4.00;99.90;;;;;;4973102;28;20447;-68
2022/12/01 07:53:32;;;;;;;33.23;19.83;;;4.00;99.90;;;;;;4972988;28;20416;-68
2022/12/01 07:55:58;;;;;;;31.07;19.63;;;4.10;99.90;;;;;;4972988;28;20801;-68
2022/12/01 07:58:25;;;;;;;35.33;20.60;;;4.10;99.90;;;;;;4972659;28;20520;-69
2022/12/01 08:00:51;;;;;;;35.07;20.70;;;4.10;99.90;;;;;;4972944;28;20447;-69
2022/12/01 08:03:16;;;;;;;34.50;20.20;;;4.10;99.90;;;;;;4972914;28;20917;-68
2022/12/01 08:05:42;;;;;;;33.50;17.80;;;4.00;99.90;;;;;;4972884;28;20440;-68
2022/12/01 08:08:07;;;;;;;29.40;18.77;;;4.00;99.90;;;;;;4972809;28;20173;-69
2022/12/01 08:10:33;;;;;;;31.97;20.73;;;4.10;99.90;;;;;;4972661;28;20177;-69
2022/12/01 08:12:58;;;;;;;29.40;19.87;;;4.10;99.90;;;;;;4972958;28;20327;-68
2022/12/01 08:15:24;;;;;;;26.37;18.40;;;4.10;99.90;;;;;;4972743;28;20204;-68
2022/12/01 08:17:49;;;;;;;28.47;18.83;;;4.10;99.90;;;;;;4972960;28;20173;-68
2022/12/01 08:20:15;;;;;;;26.83;19.17;;;4.10;99.90;;;;;;4972247;28;20199;-69
2022/12/01 08:22:41;;;;;;;28.73;18.50;;;4.20;99.90;;;;;;4972760;28;20231;-69
2022/12/01 08:25:07;;;;;;;28.47;18.40;;;4.10;99.90;;;;;;4971463;28;20216;-69
2022/12/01 08:27:33;;;;;;;33.53;18.17;;;4.20;99.90;;;;;;4972723;28;20552;-69
2022/12/01 08:29:59;;;;;;;30.87;18.80;;;4.20;99.90;;;;;;4972440;28;20172;-69
2022/12/01 08:32:24;;;;;;;26.83;17.60;;;4.20;99.90;;;;;;4972714;28;20419;-69
2022/12/01 08:34:50;;;;;;;30.97;18.80;;;4.10;99.90;;;;;;4975643;28;20552;-69
2022/12/01 08:37:15;;;;;;;31.07;17.63;;;4.10;99.90;;;;;;4976189;28;20176;-69
2022/12/01 08:39:41;;;;;;;25.23;17.63;;;4.20;99.90;;;;;;4975994;28;20678;-69
2022/12/01 08:42:06;;;;;;;28.37;18.23;;;4.20;99.90;;;;;;4976193;28;20168;-69
2022/12/01 08:44:32;;;;;;;27.07;17.77;;;4.20;99.90;;;;;;4976054;28;20613;-68
2022/12/01 08:46:57;;;;;;;30.07;17.73;;;4.30;99.90;;;;;;4976014;28;20174;-68
2022/12/01 08:49:23;;;;;;;26.77;18.63;;;4.30;99.90;;;;;;4975689;28;20176;-69
2022/12/01 08:51:48;;;;;;;26.13;17.67;;;4.30;99.90;;;;;;4975854;28;20263;-69
2022/12/01 08:54:15;;;;;;;25.70;18.10;;;4.30;99.90;;;;;;4975847;28;20194;-69
2022/12/01 08:56:43;;;;;;;27.33;18.20;;;4.30;99.90;;;;;;4975830;28;20182;-69
2022/12/01 08:59:08;;;;;;;26.87;17.80;;;4.30;99.90;;;;;;4975460;28;20498;-68
2022/12/01 09:01:50;;;;;;;32.77;19.40;;;4.30;99.90;;;;;;4975717;28;20845;-69
2022/12/01 09:04:16;;;;;;;30.77;18.13;;;4.20;99.90;;;;;;4974442;28;20243;-69
2022/12/01 09:06:44;;;;;;;29.33;17.33;;;4.20;99.90;;;;;;4975631;28;20909;-69
2022/12/01 09:09:12;;;;;;;29.53;18.50;;;4.20;99.90;;;;;;4975330;28;20439;-69
2022/12/01 09:11:39;;;;;;;27.90;18.20;;;4.10;99.90;;;;;;4975632;28;20419;-69
2022/12/01 09:14:04;;;;;;;30.30;19.07;;;4.20;99.90;;;;;;4975336;28;20459;-69
2022/12/01 09:16:30;;;;;;;25.47;18.33;;;4.30;99.90;;;;;;4975537;28;20430;-69
2022/12/01 09:18:56;;;;;;;27.63;16.90;;;4.20;99.90;;;;;;4975072;28;20560;-69
2022/12/01 09:21:25;;;;;;;25.87;16.10;;;4.30;99.90;;;;;;4975339;28;20175;-69
2022/12/01 09:23:51;;;;;;;28.70;18.13;;;4.30;99.90;;;;;;4975324;28;20192;-69
2022/12/01 09:26:18;;;;;;;22.93;16.80;;;4.30;99.90;;;;;;4975383;28;20420;-69
2022/12/01 09:28:45;;;;;;;27.70;16.47;;;4.30;99.90;;;;;;4975009;28;20176;-69
2022/12/01 09:31:12;;;;;;;23.10;17.30;;;4.30;99.90;;;;;;4975248;28;20422;-69
2022/12/01 09:33:38;;;;;;;25.40;17.57;;;4.30;99.90;;;;;;4975097;28;20438;-69
2022/12/01 09:36:06;;;;;;;27.97;17.87;;;4.40;99.90;;;;;;4975136;28;20582;-69
2022/12/01 09:38:33;;;;;;;28.50;18.50;;;4.50;99.90;;;;;;4974688;28;20551;-69
2022/12/01 09:41:03;;;;;;;27.10;17.47;;;4.40;99.90;;;;;;4975070;28;20892;-69
2022/12/01 09:43:39;;;;;;;28.20;19.00;;;4.40;99.90;;;;;;4974914;28;20459;-69
2022/12/01 09:46:08;;;;;;;27.53;18.20;;;4.50;99.90;;;;;;4974225;28;20404;-69
2022/12/01 09:48:44;;;;;;;27.47;19.40;;;4.60;99.90;;;;;;4974624;28;20419;-69
2022/12/01 09:51:21;;;;;;;26.63;18.10;;;4.50;99.90;;;;;;4974888;28;20427;-69
2022/12/01 09:53:52;;;;;;;24.37;17.13;;;4.50;99.90;;;;;;4975094;28;20964;-69
2022/12/01 09:56:27;;;;;;;26.63;17.93;;;4.50;99.90;;;;;;4974822;28;20482;-69
2022/12/01 09:58:56;;;;;;;27.10;17.40;;;4.50;99.90;;;;;;4974273;28;20960;-69
2022/12/01 10:01:36;;;;;;;29.10;18.63;;;4.60;99.90;;;;;;4974635;28;20420;-69
2022/12/01 10:04:30;;;;;;;24.97;18.57;;;4.70;99.90;;;;;;4974599;28;20902;-69
2022/12/01 10:07:10;;;;;;;28.27;17.83;;;4.70;99.90;;;;;;4974507;28;20559;-69
2022/12/01 10:09:50;;;;;;;28.73;17.27;;;4.70;99.90;;;;;;4974326;28;20526;-69
2022/12/01 10:12:19;;;;;;;32.67;17.60;;;4.70;99.90;;;;;;4974424;28;20423;-69
2022/12/01 10:14:46;;;;;;;29.10;18.23;;;4.60;99.90;;;;;;4974163;28;20460;-69
2022/12/01 10:17:33;;;;;;;26.63;16.97;;;4.60;99.90;;;;;;4973097;28;20431;-69
2022/12/01 10:20:24;;;;;;;25.87;16.30;;;4.70;99.90;;;;;;4974068;28;20494;-69
2022/12/01 10:23:17;;;;;;;23.67;16.60;;;4.70;99.90;;;;;;4974274;28;20416;-68
2022/12/01 10:25:58;;;;;;;29.27;18.43;;;4.60;99.90;;;;;;4974210;28;21032;-69
2022/12/01 10:28:45;;;;;;;26.37;16.37;;;4.60;99.90;;;;;;4973883;28;20415;-69
2022/12/01 10:31:19;;;;;;;28.20;18.83;;;4.60;99.90;;;;;;4974108;28;20997;-68
2022/12/01 10:34:01;;;;;;;29.70;18.10;;;4.60;99.90;;;;;;4974021;28;20446;-69
2022/12/01 10:36:29;;;;;;;25.13;18.33;;;4.50;99.90;;;;;;4974078;28;20439;-69
2022/12/01 10:38:55;;;;;;;30.70;18.87;;;4.70;99.90;;;;;;4973693;28;20453;-69
2022/12/01 10:41:22;;;;;;;24.40;16.80;;;4.70;99.90;;;;;;4973982;28;20495;-69
2022/12/01 10:43:56;;;;;;;26.80;18.10;;;4.80;99.90;;;;;;4973700;28;20201;-69
2022/12/01 10:46:30;;;;;;;29.93;17.57;;;4.80;99.90;;;;;;4973939;28;20422;-69
2022/12/01 10:49:06;;;;;;;25.73;16.83;;;4.70;99.90;;;;;;4973560;28;20975;-68
2022/12/01 10:51:46;;;;;;;26.67;17.60;;;4.70;99.90;;;;;;4973776;28;20423;-69
2022/12/01 10:54:12;;;;;;;26.97;17.97;;;4.70;99.90;;;;;;4973717;28;20454;-69
2022/12/01 10:56:44;;;;;;;24.50;16.80;;;4.80;99.90;;;;;;4973564;28;20909;-68
2022/12/01 10:59:33;;;;;;;25.53;16.70;;;4.80;99.90;;;;;;4973286;28;20772;-69
2022/12/01 11:02:00;;;;;;;29.27;18.00;;;4.70;99.90;;;;;;4973661;28;20984;-69
2022/12/01 11:04:44;;;;;;;30.80;20.13;;;4.70;99.90;;;;;;4973593;28;20448;-68
2022/12/01 11:07:23;;;;;;;30.00;17.70;;;4.60;99.90;;;;;;4973501;28;20828;-68
2022/12/01 11:10:14;;;;;;;25.87;17.27;;;4.50;99.90;;;;;;4973257;28;20943;-69
2022/12/01 11:12:42;;;;;;;28.67;18.07;;;4.60;99.90;;;;;;4973494;28;20423;-69
2022/12/01 11:15:27;;;;;;;26.93;17.90;;;4.70;99.90;;;;;;4973316;28;20489;-69
2022/12/01 11:17:58;;;;;;;25.27;17.13;;;4.80;99.90;;;;;;4973388;28;20788;-69
2022/12/01 11:20:36;;;;;;;30.27;19.40;;;4.80;99.90;;;;;;4973023;28;20462;-69
2022/12/01 11:23:23;;;;;;;28.93;17.23;;;4.80;99.90;;;;;;4973333;28;20424;-68
2022/12/01 11:25:54;;;;;;;26.30;18.33;;;4.80;99.90;;;;;;4973251;28;20419;-69
2022/12/01 11:28:20;;;;;;;31.37;20.17;;;4.90;99.90;;;;;;4972982;28;20451;-69
2022/12/01 11:30:53;;;;;;;26.40;17.57;;;4.90;99.90;;;;;;4973217;28;20443;-69
2022/12/01 11:33:18;;;;;;;26.77;17.63;;;4.90;99.90;;;;;;4973332;28;20184;-69
2022/12/01 11:35:47;;;;;;;26.07;18.77;;;4.90;99.90;;;;;;4973207;28;20452;-69
2022/12/01 11:38:20;;;;;;;26.37;17.10;;;5.00;99.90;;;;;;4972853;28;20195;-69
2022/12/01 11:40:52;;;;;;;26.60;18.60;;;4.90;99.90;;;;;;4973247;28;20905;-69
2022/12/01 11:43:27;;;;;;;23.33;17.60;;;4.80;99.90;;;;;;4971938;28;20421;-69
2022/12/01 11:45:55;;;;;;;25.53;17.17;;;4.80;99.90;;;;;;4973282;28;20847;-69
2022/12/01 11:48:29;;;;;;;25.83;16.70;;;4.90;99.90;;;;;;4972806;28;20403;-69
2022/12/01 11:51:16;;;;;;;24.47;17.23;;;4.90;99.90;;;;;;4973031;28;20419;-69
2022/12/01 11:53:42;;;;;;;25.33;17.30;;;4.90;99.90;;;;;;4973012;28;20420;-69
2022/12/01 11:56:19;;;;;;;25.30;16.80;;;5.00;99.90;;;;;;4972974;28;20422;-69
2022/12/01 11:58:47;;;;;;;25.10;17.43;;;5.00;99.90;;;;;;4972578;28;20547;-69
2022/12/01 12:01:26;;;;;;;28.10;17.60;;;5.10;99.90;;;;;;4972739;28;20424;-69
2022/12/01 12:04:11;;;;;;;24.77;17.47;;;5.10;99.90;;;;;;4972978;28;20435;-69
2022/12/01 12:07:03;;;;;;;25.13;16.00;;;5.10;99.90;;;;;;4973006;28;20788;-68
2022/12/01 12:09:44;;;;;;;24.97;16.13;;;5.10;99.90;;;;;;4975223;28;20430;-69
2022/12/01 12:12:27;;;;;;;24.40;17.03;;;5.10;99.90;;;;;;4976603;28;20423;-69
2022/12/01 12:15:00;;;;;;;27.43;18.50;;;5.00;99.90;;;;;;4976381;28;20463;-69
2022/12/01 12:17:59;;;;;;;28.33;18.30;;;5.10;99.90;;;;;;4976625;28;20434;-69
2022/12/01 12:20:33;;;;;;;24.80;17.17;;;5.20;99.90;;;;;;4976209;28;20542;-71
2022/12/01 12:23:02;;;;;;;23.00;15.63;;;5.20;99.90;;;;;;4976503;28;20415;-67
2022/12/01 12:25:36;;;;;;;29.53;17.43;;;5.10;99.90;;;;;;4976392;28;20527;-70
2022/12/01 12:28:24;;;;;;;26.90;18.20;;;5.10;99.90;;;;;;4976392;28;20411;-68
2022/12/01 12:30:53;;;;;;;23.93;16.17;;;5.10;99.90;;;;;;4976386;28;20783;-68
2022/12/01 12:33:35;;;;;;;22.40;15.60;;;5.20;99.90;;;;;;4976542;28;20430;-68
2022/12/01 12:36:08;;;;;;;23.63;15.80;;;5.20;99.90;;;;;;4976309;28;20771;-68
2022/12/01 12:39:14;;;;;;;25.83;16.47;;;5.30;99.90;;;;;;4975810;28;20474;-68
2022/12/01 12:41:49;;;;;;;26.50;16.83;;;5.30;99.90;;;;;;4973765;28;20427;-68
2022/12/01 12:44:46;;;;;;;23.23;16.27;;;5.40;99.90;;;;;;4975813;28;20541;-68
2022/12/01 12:47:36;;;;;;;23.10;15.87;;;5.50;99.90;;;;;;4976006;28;20420;-68
2022/12/01 12:50:29;;;;;;;23.63;15.37;;;5.50;99.90;;;;;;4975755;28;20419;-68
2022/12/01 12:52:59;;;;;;;20.70;15.33;;;5.60;99.90;;;;;;4975945;28;20490;-68
2022/12/01 12:55:35;;;;;;;25.33;16.03;;;5.60;99.90;;;;;;4975924;28;20439;-68
2022/12/01 12:58:09;;;;;;;21.37;16.20;;;5.60;99.90;;;;;;4975904;28;20428;-68
2022/12/01 13:00:38;;;;;;;23.90;15.90;;;5.60;99.90;;;;;;4975727;28;20467;-68
2022/12/01 13:03:20;;;;;;;20.53;14.80;;;5.50;99.90;;;;;;4975700;28;20419;-68